createdAt,value
2022-12-01T00:02:01.704Z,25.01
2022-12-01T00:07:07.667Z,24.57
2022-12-01T00:12:13.043Z,22.92
2022-12-01T00:17:20.133Z,23.80
2022-12-01T00:22:23.967Z,24.13
2022-12-01T00:27:28.171Z,24.52
2022-12-01T00:32:32.842Z,26.72
2022-12-01T00:37:38.816Z,25.21
2022-12-01T00:42:42.132Z,26.14
2022-12-01T00:47:46.853Z,26.33
2022-12-01T00:52:52.399Z,29.26
2022-12-01T00:57:55.762Z,35.38
2022-12-01T01:03:00.436Z,34.73
2022-12-01T01:08:07.445Z,30.60
2022-12-01T01:13:10.946Z,27.08
2022-12-01T01:18:15.609Z,28.20
2022-12-01T01:23:18.884Z,28.51
2022-12-01T01:28:25.268Z,27.17
2022-12-01T01:33:31.061Z,27.80
2022-12-01T01:38:35.050Z,27.94
2022-12-01T01:43:43.178Z,28.29
2022-12-01T01:48:52.332Z,27.86
2022-12-01T01:53:58.892Z,28.38
2022-12-01T01:59:02.331Z,28.29
2022-12-01T02:04:08.451Z,29.10
2022-12-01T02:09:16.159Z,29.20
2022-12-01T02:14:40.355Z,35.62
2022-12-01T02:20:05.423Z,39.67
2022-12-01T02:25:20.197Z,39.53
2022-12-01T02:30:33.449Z,36.47
2022-12-01T02:35:45.087Z,36.29
2022-12-01T02:40:53.638Z,32.24
2022-12-01T02:46:07.419Z,30.61
2022-12-01T02:51:15.613Z,29.36
2022-12-01T02:56:22.711Z,29.43
2022-12-01T03:01:39.094Z,28.87
2022-12-01T03:06:49.747Z,28.11
2022-12-01T03:11:59.871Z,27.29
2022-12-01T03:17:06.884Z,27.93
2022-12-01T03:22:13.733Z,28.29
2022-12-01T03:27:23.777Z,29.25
2022-12-01T03:32:32.953Z,27.29
2022-12-01T03:37:40.115Z,27.61
2022-12-01T03:42:47.870Z,27.99
2022-12-01T03:47:52.704Z,27.50
2022-12-01T03:53:07.684Z,27.64
2022-12-01T03:58:16.518Z,28.05
2022-12-01T04:03:27.072Z,28.13
2022-12-01T04:08:33.936Z,28.91
2022-12-01T04:13:39.563Z,28.85
2022-12-01T04:18:48.559Z,28.26
2022-12-01T04:24:04.040Z,30.49
2022-12-01T04:29:09.938Z,29.10
2022-12-01T04:34:14.672Z,29.09
2022-12-01T04:39:18.041Z,29.25
2022-12-01T04:44:21.285Z,28.99
2022-12-01T04:49:26.450Z,28.02
2022-12-01T04:54:29.895Z,27.90
2022-12-01T04:59:33.283Z,29.03
2022-12-01T05:04:38.850Z,29.13
2022-12-01T05:09:42.231Z,29.98
2022-12-01T05:14:45.603Z,31.47
2022-12-01T05:20:12.837Z,40.36
2022-12-01T05:25:16.212Z,36.87
2022-12-01T05:30:25.644Z,34.69
2022-12-01T05:35:35.648Z,32.26
2022-12-01T05:40:38.999Z,34.27
2022-12-01T05:45:42.444Z,37.21
2022-12-01T05:50:49.433Z,35.85
2022-12-01T05:55:53.310Z,28.31
2022-12-01T06:00:57.251Z,27.91
2022-12-01T06:06:04.198Z,27.99
2022-12-01T06:11:09.793Z,28.42
2022-12-01T06:16:13.127Z,29.44
2022-12-01T06:21:19.921Z,27.92
2022-12-01T06:26:26.386Z,27.75
2022-12-01T06:31:29.818Z,27.36
2022-12-01T06:36:34.815Z,27.53
2022-12-01T06:41:38.201Z,28.15
2022-12-01T06:46:43.925Z,28.37
2022-12-01T06:51:48.700Z,32.32
2022-12-01T06:56:52.080Z,37.13
2022-12-01T07:01:57.742Z,34.49
2022-12-01T07:07:02.441Z,36.00
2022-12-01T07:12:06.082Z,35.33
2022-12-01T07:17:09.435Z,34.93
2022-12-01T07:22:14.079Z,34.90
2022-12-01T07:27:17.622Z,37.27
2022-12-01T07:32:23.245Z,38.14
2022-12-01T07:37:28.011Z,36.29
2022-12-01T07:42:33.621Z,31.93
2022-12-01T07:47:36.897Z,33.02
2022-12-01T07:52:43.639Z,34.09
2022-12-01T07:57:50.071Z,38.04
2022-12-01T08:02:53.506Z,36.09
2022-12-01T08:07:58.657Z,36.80
2022-12-01T08:13:04.965Z,36.35
2022-12-01T08:18:08.329Z,33.24
2022-12-01T08:23:13.217Z,32.36
2022-12-01T08:28:19.109Z,34.20
2022-12-01T08:33:22.456Z,31.71
2022-12-01T08:38:27.145Z,28.07
2022-12-01T08:48:59.236Z,27.91
2022-12-01T08:54:06.080Z,26.20
2022-12-01T08:59:11.981Z,26.48
2022-12-01T09:04:15.318Z,25.38
2022-12-01T09:09:21.588Z,25.85
2022-12-01T09:14:27.142Z,26.82
2022-12-01T09:19:30.754Z,31.50
2022-12-01T09:24:35.602Z,28.13
2022-12-01T09:29:38.945Z,28.69
2022-12-01T09:34:42.419Z,30.62
2022-12-01T09:39:47.160Z,35.46
2022-12-01T09:44:52.863Z,36.26
2022-12-01T09:50:00.270Z,41.63
2022-12-01T09:55:08.587Z,39.77
2022-12-01T10:00:16.065Z,41.43
2022-12-01T10:05:21.336Z,38.46
2022-12-01T10:10:29.282Z,37.33
2022-12-01T10:15:44.241Z,43.12
2022-12-01T10:20:53.529Z,39.80
2022-12-01T10:26:00.234Z,41.28
2022-12-01T10:31:13.468Z,42.43
2022-12-01T10:36:19.004Z,42.61
2022-12-01T10:41:26.327Z,44.39
2022-12-01T10:46:34.583Z,42.90
2022-12-01T10:51:48.132Z,48.48
2022-12-01T10:56:57.005Z,50.14
2022-12-01T11:02:03.092Z,65.34
2022-12-01T11:07:07.318Z,56.54
2022-12-01T11:12:16.056Z,57.23
2022-12-01T11:17:27.810Z,57.58
2022-12-01T11:22:32.212Z,54.33
2022-12-01T11:27:43.433Z,56.01
2022-12-01T11:32:53.514Z,58.30
2022-12-01T11:38:29.219Z,52.72
2022-12-01T11:43:27.189Z,50.60
2022-12-01T11:48:36.655Z,55.56
2022-12-01T11:53:43.343Z,51.38
2022-12-01T11:58:49.309Z,50.63
2022-12-01T12:04:00.232Z,50.95
2022-12-01T12:09:14.566Z,55.71
2022-12-01T12:14:30.947Z,63.62
2022-12-01T12:20:06.750Z,63.17
2022-12-01T12:25:23.932Z,50.08
2022-12-01T12:30:32.742Z,47.29
2022-12-01T12:35:42.377Z,48.74
2022-12-01T12:40:53.949Z,51.34
2022-12-01T12:46:05.882Z,50.86
2022-12-01T12:51:14.290Z,48.45
2022-12-01T12:56:23.071Z,47.33
2022-12-01T13:01:34.751Z,42.59
2022-12-01T13:06:44.708Z,35.84
2022-12-01T13:11:52.619Z,38.13
2022-12-01T13:17:00.557Z,34.33
2022-12-01T13:22:08.512Z,28.48
2022-12-01T13:27:17.659Z,21.82
2022-12-01T13:32:28.842Z,23.59
2022-12-01T13:37:39.605Z,22.18
2022-12-01T13:42:43.251Z,20.59
2022-12-01T13:47:53.030Z,18.55
2022-12-01T13:53:10.975Z,18.52
2022-12-01T13:58:41.991Z,23.79
2022-12-01T14:03:53.238Z,20.08
2022-12-01T14:09:00.162Z,19.29
2022-12-01T14:14:11.661Z,19.36
2022-12-01T14:19:28.623Z,20.52
2022-12-01T14:24:35.358Z,22.14
2022-12-01T14:29:39.908Z,20.20
2022-12-01T14:34:45.660Z,22.58
2022-12-01T14:39:59.212Z,29.05
2022-12-01T14:45:04.654Z,20.94
2022-12-01T14:50:16.109Z,21.29
2022-12-01T14:55:25.499Z,22.99
2022-12-01T15:00:34.971Z,27.26
2022-12-01T15:05:44.180Z,27.96
2022-12-01T15:10:52.579Z,29.33
2022-12-01T15:15:58.350Z,28.50
2022-12-01T15:21:10.506Z,34.01
2022-12-01T15:26:20.547Z,31.37
2022-12-01T15:31:26.438Z,32.49
2022-12-01T15:36:31.188Z,31.37
2022-12-01T15:41:38.126Z,37.13
2022-12-01T15:46:42.197Z,32.29
2022-12-01T15:51:50.576Z,34.73
2022-12-01T15:56:58.680Z,33.88
2022-12-01T16:02:07.282Z,44.97
2022-12-01T16:07:12.847Z,39.61
2022-12-01T16:12:24.468Z,40.28
2022-12-01T16:17:41.505Z,56.72
2022-12-01T16:22:50.893Z,42.80
2022-12-01T16:27:58.456Z,40.62
2022-12-01T16:33:03.670Z,40.85
2022-12-01T16:38:13.257Z,43.55
2022-12-01T16:43:17.798Z,44.99
2022-12-01T16:48:21.613Z,46.80
2022-12-01T16:53:28.383Z,41.58
2022-12-01T16:58:31.744Z,43.64
2022-12-01T17:03:35.957Z,43.38
2022-12-01T17:08:40.579Z,43.58
2022-12-01T17:13:46.252Z,41.60
2022-12-01T17:18:49.558Z,63.14
2022-12-01T17:23:54.296Z,40.13
2022-12-01T17:28:57.592Z,41.80
2022-12-01T17:34:05.585Z,40.05
2022-12-01T17:39:10.648Z,40.81
2022-12-01T17:44:16.457Z,44.49
2022-12-01T17:49:21.978Z,51.63
2022-12-01T17:54:26.615Z,47.73
2022-12-01T17:59:29.918Z,46.84
2022-12-01T18:04:36.090Z,46.50
2022-12-01T18:09:41.064Z,50.00
2022-12-01T18:14:44.591Z,52.23
2022-12-01T18:19:48.996Z,50.21
2022-12-01T18:24:53.728Z,49.62
2022-12-01T18:29:57.843Z,52.15
2022-12-01T18:35:03.365Z,47.74
2022-12-01T18:40:09.205Z,46.74
2022-12-01T18:45:17.956Z,42.77
2022-12-01T18:50:26.726Z,43.86
2022-12-01T18:55:31.538Z,48.00
2022-12-01T19:00:35.320Z,51.92
2022-12-01T19:05:38.804Z,54.49
2022-12-01T19:10:45.813Z,51.35
2022-12-01T19:15:49.436Z,49.30
2022-12-01T19:20:52.879Z,50.87
2022-12-01T19:25:57.617Z,49.65
2022-12-01T19:31:01.299Z,54.01
2022-12-01T19:36:05.526Z,53.06
2022-12-01T19:41:13.493Z,56.36
2022-12-01T19:46:21.450Z,51.40
2022-12-01T19:51:26.423Z,47.21
2022-12-01T19:56:31.740Z,48.18
2022-12-01T20:01:35.336Z,48.42
2022-12-01T20:06:39.242Z,57.61
2022-12-01T20:11:45.025Z,54.71
2022-12-01T20:16:50.972Z,51.70
2022-12-01T20:21:56.528Z,51.79
2022-12-01T20:27:04.476Z,47.15
2022-12-01T20:32:11.291Z,45.83
2022-12-01T20:37:15.255Z,46.73
2022-12-01T20:42:22.325Z,46.71
2022-12-01T20:47:25.662Z,47.51
2022-12-01T20:52:29.029Z,48.68
2022-12-01T20:57:33.795Z,48.24
2022-12-01T21:02:37.849Z,49.15
2022-12-01T21:07:41.346Z,46.84
2022-12-01T21:13:07.216Z,47.24
2022-12-01T21:18:21.309Z,45.95
2022-12-01T21:23:28.152Z,47.28
2022-12-01T21:28:32.791Z,45.82
2022-12-01T21:33:37.415Z,46.43
2022-12-01T21:38:42.915Z,46.73
2022-12-01T21:43:47.526Z,47.13
2022-12-01T21:48:53.042Z,48.85
2022-12-01T21:53:59.250Z,47.32
2022-12-01T21:59:14.802Z,45.53
2022-12-01T22:04:20.314Z,40.10
2022-12-01T22:09:25.646Z,40.47
2022-12-01T22:14:33.465Z,39.31
2022-12-01T22:19:39.040Z,40.22
2022-12-01T22:24:43.770Z,40.16
2022-12-01T22:29:50.348Z,41.95
2022-12-01T22:34:56.311Z,41.60
2022-12-01T22:39:59.619Z,40.62
2022-12-01T22:45:20.732Z,41.59
2022-12-01T22:50:27.802Z,43.37
2022-12-01T22:55:31.104Z,41.48
2022-12-01T23:00:38.127Z,41.46
2022-12-01T23:05:42.155Z,40.43
2022-12-01T23:10:45.863Z,38.51
2022-12-01T23:15:55.301Z,38.51
2022-12-01T23:21:00.002Z,38.07
2022-12-01T23:26:04.546Z,38.24
2022-12-01T23:31:10.274Z,38.35
2022-12-01T23:36:17.644Z,38.73
2022-12-01T23:41:25.727Z,38.01
2022-12-01T23:46:30.668Z,36.90
2022-12-01T23:51:36.953Z,35.18
2022-12-01T23:56:42.580Z,34.01
